sensor_id;sensor_type;location;lat;lon;timestamp;pressure;altitude;pressure_sealevel;temperature;humidity
17615;BME280;8926;49.720;6.576;2024-03-07T00:01:37;100392.94;;;7.90;82.94
17615;BME280;8926;49.720;6.576;2024-03-07T00:04:02;100399.00;;;7.91;82.89
17615;BME280;8926;49.720;6.576;2024-03-07T00:06:27;100399.00;;;7.91;83.49
17615;BME280;8926;49.720;6.576;2024-03-07T00:08:52;100400.75;;;7.90;83.41
17615;BME280;8926;49.720;6.576;2024-03-07T00:11:18;100400.69;;;7.92;83.44
17615;BME280;8926;49.720;6.576;2024-03-07T00:13:44;100399.94;;;7.88;84.19
17615;BME280;8926;49.720;6.576;2024-03-07T00:16:09;100400.00;;;7.87;84.08
17615;BME280;8926;49.720;6.576;2024-03-07T00:18:35;100388.91;;;7.81;83.94
17615;BME280;8926;49.720;6.576;2024-03-07T00:21:00;100400.16;;;7.82;83.69
17615;BME280;8926;49.720;6.576;2024-03-07T00:23:26;100389.88;;;7.79;84.51
17615;BME280;8926;49.720;6.576;2024-03-07T00:25:51;100395.09;;;7.79;84.47
17615;BME280;8926;49.720;6.576;2024-03-07T00:28:17;100397.69;;;7.79;84.71
17615;BME280;8926;49.720;6.576;2024-03-07T00:30:42;100388.06;;;7.81;84.44
17615;BME280;8926;49.720;6.576;2024-03-07T00:33:09;100393.16;;;7.84;83.96
17615;BME280;8926;49.720;6.576;2024-03-07T00:35:35;100396.56;;;7.86;84.12
17615;BME280;8926;49.720;6.576;2024-03-07T00:38:00;100393.91;;;7.88;84.30
17615;BME280;8926;49.720;6.576;2024-03-07T00:40:25;100389.66;;;7.85;84.07
17615;BME280;8926;49.720;6.576;2024-03-07T00:42:50;100391.44;;;7.83;84.36
17615;BME280;8926;49.720;6.576;2024-03-07T00:45:16;100394.06;;;7.83;84.40
17615;BME280;8926;49.720;6.576;2024-03-07T00:47:41;100386.50;;;7.77;83.98
17615;BME280;8926;49.720;6.576;2024-03-07T00:50:07;100389.16;;;7.75;84.36
17615;BME280;8926;49.720;6.576;2024-03-07T00:52:33;100384.78;;;7.76;84.32
17615;BME280;8926;49.720;6.576;2024-03-07T00:54:58;100388.19;;;7.78;84.50
17615;BME280;8926;49.720;6.576;2024-03-07T00:57:23;100381.28;;;7.77;84.97
17615;BME280;8926;49.720;6.576;2024-03-07T00:59:49;100381.28;;;7.77;84.12
17615;BME280;8926;49.720;6.576;2024-03-07T01:02:14;100382.25;;;7.74;84.30
17615;BME280;8926;49.720;6.576;2024-03-07T01:04:40;100372.78;;;7.72;84.42
17615;BME280;8926;49.720;6.576;2024-03-07T01:07:05;100369.28;;;7.73;84.45
17615;BME280;8926;49.720;6.576;2024-03-07T01:09:30;100374.38;;;7.76;84.49
17615;BME280;8926;49.720;6.576;2024-03-07T01:11:55;100375.19;;;7.78;84.46
17615;BME280;8926;49.720;6.576;2024-03-07T01:14:21;100376.81;;;7.80;83.68
17615;BME280;8926;49.720;6.576;2024-03-07T01:16:47;100375.19;;;7.78;83.60
17615;BME280;8926;49.720;6.576;2024-03-07T01:19:12;100374.38;;;7.76;83.54
17615;BME280;8926;49.720;6.576;2024-03-07T01:21:38;100377.94;;;7.73;83.73
17615;BME280;8926;49.720;6.576;2024-03-07T01:24:03;100379.69;;;7.73;83.81
17615;BME280;8926;49.720;6.576;2024-03-07T01:26:29;100373.66;;;7.72;84.48
17615;BME280;8926;49.720;6.576;2024-03-07T01:28:54;100372.78;;;7.72;84.57
17615;BME280;8926;49.720;6.576;2024-03-07T01:31:21;100372.91;;;7.69;84.68
17615;BME280;8926;49.720;6.576;2024-03-07T01:33:46;100369.59;;;7.64;84.97
17615;BME280;8926;49.720;6.576;2024-03-07T01:36:11;100369.81;;;7.58;85.42
17615;BME280;8926;49.720;6.576;2024-03-07T01:38:36;100376.09;;;7.52;86.37
17615;BME280;8926;49.720;6.576;2024-03-07T01:41:01;100370.16;;;7.48;86.26
17615;BME280;8926;49.720;6.576;2024-03-07T01:43:26;100360.53;;;7.51;86.02
17615;BME280;8926;49.720;6.576;2024-03-07T01:45:53;100359.50;;;7.55;85.29
17615;BME280;8926;49.720;6.576;2024-03-07T01:48:23;100363.00;;;7.54;85.50
17615;BME280;8926;49.720;6.576;2024-03-07T01:50:50;100361.34;;;7.53;85.82
17615;BME280;8926;49.720;6.576;2024-03-07T01:53:15;100362.28;;;7.50;86.08
17615;BME280;8926;49.720;6.576;2024-03-07T01:55:41;100363.13;;;7.51;85.67
17615;BME280;8926;49.720;6.576;2024-03-07T01:58:09;100356.34;;;7.46;85.53
17615;BME280;8926;49.720;6.576;2024-03-07T02:00:38;100351.25;;;7.43;85.92
17615;BME280;8926;49.720;6.576;2024-03-07T02:03:03;100354.78;;;7.41;86.25
17615;BME280;8926;49.720;6.576;2024-03-07T02:05:28;100343.59;;;7.39;86.03
17615;BME280;8926;49.720;6.576;2024-03-07T02:07:54;100342.84;;;7.35;85.99
17615;BME280;8926;49.720;6.576;2024-03-07T02:10:19;100348.16;;;7.32;86.47
17615;BME280;8926;49.720;6.576;2024-03-07T02:12:44;100341.16;;;7.34;86.20
17615;BME280;8926;49.720;6.576;2024-03-07T02:15:12;100342.00;;;7.35;86.38
17615;BME280;8926;49.720;6.576;2024-03-07T02:17:38;100342.00;;;7.35;86.18
17615;BME280;8926;49.720;6.576;2024-03-07T02:20:04;100334.34;;;7.30;86.59
17615;BME280;8926;49.720;6.576;2024-03-07T02:22:32;100337.00;;;7.29;86.23
17615;BME280;8926;49.720;6.576;2024-03-07T02:24:57;100335.31;;;7.28;85.74
17615;BME280;8926;49.720;6.576;2024-03-07T02:27:23;100336.28;;;7.25;85.97
17615;BME280;8926;49.720;6.576;2024-03-07T02:29:48;100336.38;;;7.22;86.05
17615;BME280;8926;49.720;6.576;2024-03-07T02:32:14;100326.09;;;7.19;86.12
17615;BME280;8926;49.720;6.576;2024-03-07T02:34:39;100326.00;;;7.22;85.90
17615;BME280;8926;49.720;6.576;2024-03-07T02:37:04;100327.69;;;7.23;85.50
17615;BME280;8926;49.720;6.576;2024-03-07T02:39:29;100327.78;;;7.20;86.07
17615;BME280;8926;49.720;6.576;2024-03-07T02:41:55;100333.09;;;7.17;85.93
17615;BME280;8926;49.720;6.576;2024-03-07T02:44:20;100322.78;;;7.14;85.74
17615;BME280;8926;49.720;6.576;2024-03-07T02:46:45;100320.16;;;7.15;85.39
17615;BME280;8926;49.720;6.576;2024-03-07T02:49:12;100326.28;;;7.13;85.55
17615;BME280;8926;49.720;6.576;2024-03-07T02:51:37;100322.94;;;7.09;85.48
17615;BME280;8926;49.720;6.576;2024-03-07T02:54:03;100318.59;;;7.10;85.55
17615;BME280;8926;49.720;6.576;2024-03-07T02:56:30;100316.84;;;7.10;85.49
17615;BME280;8926;49.720;6.576;2024-03-07T02:58:55;100319.50;;;7.09;85.31
17615;BME280;8926;49.720;6.576;2024-03-07T03:01:20;100316.00;;;7.10;84.99
17615;BME280;8926;49.720;6.576;2024-03-07T03:03:46;100310.09;;;7.05;85.22
17615;BME280;8926;49.720;6.576;2024-03-07T03:06:11;100307.59;;;7.02;84.95
17615;BME280;8926;49.720;6.576;2024-03-07T03:08:37;100318.00;;;7.02;85.23
17615;BME280;8926;49.720;6.576;2024-03-07T03:11:02;100318.22;;;6.96;84.92
17615;BME280;8926;49.720;6.576;2024-03-07T03:13:28;100313.22;;;6.90;85.06
17615;BME280;8926;49.720;6.576;2024-03-07T03:15:54;100311.72;;;6.82;85.06
17615;BME280;8926;49.720;6.576;2024-03-07T03:18:20;100320.63;;;6.75;85.30
17615;BME280;8926;49.720;6.576;2024-03-07T03:20:46;100312.22;;;6.67;85.55
17615;BME280;8926;49.720;6.576;2024-03-07T03:23:13;100320.91;;;6.66;85.87
17615;BME280;8926;49.720;6.576;2024-03-07T03:25:38;100313.19;;;6.63;85.15
17615;BME280;8926;49.720;6.576;2024-03-07T03:28:06;100310.78;;;6.57;85.54
17615;BME280;8926;49.720;6.576;2024-03-07T03:30:34;100312.66;;;6.52;85.93
17615;BME280;8926;49.720;6.576;2024-03-07T03:33:00;100305.78;;;6.51;85.70
17615;BME280;8926;49.720;6.576;2024-03-07T03:35:25;100298.88;;;6.50;85.48
17615;BME280;8926;49.720;6.576;2024-03-07T03:37:50;100302.63;;;6.41;85.94
17615;BME280;8926;49.720;6.576;2024-03-07T03:40:15;100302.69;;;6.40;85.50
17615;BME280;8926;49.720;6.576;2024-03-07T03:42:41;100303.53;;;6.40;85.92
17615;BME280;8926;49.720;6.576;2024-03-07T03:45:07;100308.06;;;6.34;85.62
17615;BME280;8926;49.720;6.576;2024-03-07T03:47:34;100306.25;;;6.36;85.11
17615;BME280;8926;49.720;6.576;2024-03-07T03:50:00;100309.81;;;6.33;84.86
17615;BME280;8926;49.720;6.576;2024-03-07T03:52:25;100314.09;;;6.34;84.64
17615;BME280;8926;49.720;6.576;2024-03-07T03:54:51;100312.56;;;6.27;85.35
17615;BME280;8926;49.720;6.576;2024-03-07T03:57:16;100313.34;;;6.31;85.61
17615;BME280;8926;49.720;6.576;2024-03-07T03:59:43;100313.16;;;6.37;84.90
17615;BME280;8926;49.720;6.576;2024-03-07T04:02:09;100302.69;;;6.40;85.16
17615;BME280;8926;49.720;6.576;2024-03-07T04:04:38;100307.88;;;6.40;85.53
17615;BME280;8926;49.720;6.576;2024-03-07T04:07:03;100302.78;;;6.37;85.01
17615;BME280;8926;49.720;6.576;2024-03-07T04:09:28;100303.72;;;6.34;84.98
17615;BME280;8926;49.720;6.576;2024-03-07T04:11:53;100307.38;;;6.27;85.47
17615;BME280;8926;49.720;6.576;2024-03-07T04:14:19;100294.47;;;6.26;85.47
17615;BME280;8926;49.720;6.576;2024-03-07T04:16:44;100299.69;;;6.24;85.29
17615;BME280;8926;49.720;6.576;2024-03-07T04:19:10;100297.06;;;6.26;85.46
17615;BME280;8926;49.720;6.576;2024-03-07T04:21:35;100300.63;;;6.23;85.13
17615;BME280;8926;49.720;6.576;2024-03-07T04:24:00;100298.25;;;6.16;85.32
17615;BME280;8926;49.720;6.576;2024-03-07T04:26:26;100298.41;;;6.09;85.46
17615;BME280;8926;49.720;6.576;2024-03-07T04:28:51;100295.94;;;6.05;85.98
17615;BME280;8926;49.720;6.576;2024-03-07T04:31:16;100297.69;;;6.04;86.04
17615;BME280;8926;49.720;6.576;2024-03-07T04:33:41;100289.25;;;5.98;85.76
17615;BME280;8926;49.720;6.576;2024-03-07T04:36:07;100288.56;;;5.93;86.19
17615;BME280;8926;49.720;6.576;2024-03-07T04:38:32;100285.88;;;5.96;86.25
17615;BME280;8926;49.720;6.576;2024-03-07T04:40:57;100285.91;;;5.94;86.20
17615;BME280;8926;49.720;6.576;2024-03-07T04:43:22;100286.88;;;5.90;85.76
17615;BME280;8926;49.720;6.576;2024-03-07T04:45:48;100281.69;;;5.90;86.00
17615;BME280;8926;49.720;6.576;2024-03-07T04:48:13;100279.91;;;5.92;85.94
17615;BME280;8926;49.720;6.576;2024-03-07T04:50:38;100281.63;;;5.93;86.05
17615;BME280;8926;49.720;6.576;2024-03-07T04:53:03;100285.09;;;5.92;85.82
17615;BME280;8926;49.720;6.576;2024-03-07T04:55:29;100278.34;;;5.85;86.14
17615;BME280;8926;49.720;6.576;2024-03-07T04:57:54;100285.25;;;5.86;86.56
17615;BME280;8926;49.720;6.576;2024-03-07T05:00:19;100278.34;;;5.85;86.58
17615;BME280;8926;49.720;6.576;2024-03-07T05:02:45;100281.94;;;5.81;86.51
17615;BME280;8926;49.720;6.576;2024-03-07T05:05:11;100279.53;;;5.73;86.18
17615;BME280;8926;49.720;6.576;2024-03-07T05:07:36;100282.28;;;5.69;87.16
17615;BME280;8926;49.720;6.576;2024-03-07T05:10:02;100283.25;;;5.65;86.65
17615;BME280;8926;49.720;6.576;2024-03-07T05:12:27;100280.75;;;5.62;87.38
17615;BME280;8926;49.720;6.576;2024-03-07T05:14:53;100282.47;;;5.63;86.97
17615;BME280;8926;49.720;6.576;2024-03-07T05:17:18;100279.94;;;5.60;86.73
17615;BME280;8926;49.720;6.576;2024-03-07T05:19:44;100279.06;;;5.61;86.40
17615;BME280;8926;49.720;6.576;2024-03-07T05:22:10;100278.28;;;5.57;87.02
17615;BME280;8926;49.720;6.576;2024-03-07T05:24:40;100274.03;;;5.55;87.42
17615;BME280;8926;49.720;6.576;2024-03-07T05:27:07;100268.84;;;5.55;86.74
17615;BME280;8926;49.720;6.576;2024-03-07T05:29:32;100267.22;;;5.51;86.87
17615;BME280;8926;49.720;6.576;2024-03-07T05:32:17;100267.31;;;5.47;87.31
17615;BME280;8926;49.720;6.576;2024-03-07T05:34:43;100264.84;;;5.44;87.89
17615;BME280;8926;49.720;6.576;2024-03-07T05:37:08;100270.91;;;5.43;88.02
17615;BME280;8926;49.720;6.576;2024-03-07T05:39:33;100274.38;;;5.42;88.17
17615;BME280;8926;49.720;6.576;2024-03-07T05:41:58;100266.69;;;5.39;87.44
17615;BME280;8926;49.720;6.576;2024-03-07T05:44:24;100264.19;;;5.36;87.63
17615;BME280;8926;49.720;6.576;2024-03-07T05:46:49;100265.88;;;5.37;88.32
17615;BME280;8926;49.720;6.576;2024-03-07T05:49:15;100262.47;;;5.35;87.70
17615;BME280;8926;49.720;6.576;2024-03-07T05:51:45;100270.22;;;5.37;88.08
17615;BME280;8926;49.720;6.576;2024-03-07T05:54:13;100266.78;;;5.36;87.40
17615;BME280;8926;49.720;6.576;2024-03-07T05:56:38;100262.47;;;5.35;87.86
17615;BME280;8926;49.720;6.576;2024-03-07T05:59:04;100260.75;;;5.36;88.29
17615;BME280;8926;49.720;6.576;2024-03-07T06:01:35;100260.88;;;5.31;87.94
17615;BME280;8926;49.720;6.576;2024-03-07T06:04:01;100260.22;;;5.23;87.83
17615;BME280;8926;49.720;6.576;2024-03-07T06:06:27;100258.66;;;5.18;87.26
17615;BME280;8926;49.720;6.576;2024-03-07T06:08:52;100262.88;;;5.20;88.18
17615;BME280;8926;49.720;6.576;2024-03-07T06:11:18;100264.53;;;5.23;88.16
17615;BME280;8926;49.720;6.576;2024-03-07T06:13:46;100260.25;;;5.22;88.17
17615;BME280;8926;49.720;6.576;2024-03-07T06:16:11;100261.91;;;5.24;88.15
17615;BME280;8926;49.720;6.576;2024-03-07T06:18:36;100264.44;;;5.27;87.90
17615;BME280;8926;49.720;6.576;2024-03-07T06:21:01;100264.34;;;5.30;87.75
17615;BME280;8926;49.720;6.576;2024-03-07T06:23:29;100263.28;;;5.37;88.00
17615;BME280;8926;49.720;6.576;2024-03-07T06:25:55;100264.03;;;5.42;87.88
17615;BME280;8926;49.720;6.576;2024-03-07T06:28:21;100262.25;;;5.44;88.04
17615;BME280;8926;49.720;6.576;2024-03-07T06:30:46;100263.75;;;5.52;87.58
17615;BME280;8926;49.720;6.576;2024-03-07T06:33:12;100265.28;;;5.59;87.56
17615;BME280;8926;49.720;6.576;2024-03-07T06:35:37;100267.72;;;5.65;88.05
17615;BME280;8926;49.720;6.576;2024-03-07T06:38:09;100268.31;;;5.73;87.53
17615;BME280;8926;49.720;6.576;2024-03-07T06:40:35;100270.72;;;5.80;87.47
17615;BME280;8926;49.720;6.576;2024-03-07T06:43:01;100269.78;;;5.83;87.02
17615;BME280;8926;49.720;6.576;2024-03-07T06:45:29;100277.59;;;5.82;86.25
17615;BME280;8926;49.720;6.576;2024-03-07T06:47:54;100271.38;;;5.89;87.25
17615;BME280;8926;49.720;6.576;2024-03-07T06:50:19;100279.84;;;5.95;86.93
17615;BME280;8926;49.720;6.576;2024-03-07T06:52:48;100281.28;;;6.04;86.84
17615;BME280;8926;49.720;6.576;2024-03-07T06:55:16;100274.19;;;6.10;86.53
17615;BME280;8926;49.720;6.576;2024-03-07T06:57:42;100278.00;;;6.27;86.11
17615;BME280;8926;49.720;6.576;2024-03-07T07:00:08;100276.75;;;6.40;85.95
17615;BME280;8926;49.720;6.576;2024-03-07T07:02:38;100279.44;;;6.63;85.85
17615;BME280;8926;49.720;6.576;2024-03-07T07:05:07;100269.41;;;7.54;83.55
17615;BME280;8926;49.720;6.576;2024-03-07T07:07:36;100265.38;;;8.38;80.77
17615;BME280;8926;49.720;6.576;2024-03-07T07:10:02;100252.41;;;8.80;78.08
17615;BME280;8926;49.720;6.576;2024-03-07T07:12:27;100259.16;;;9.45;76.08
17615;BME280;8926;49.720;6.576;2024-03-07T07:14:53;100257.03;;;10.11;74.67
17615;BME280;8926;49.720;6.576;2024-03-07T07:17:18;100259.72;;;10.29;72.87
17615;BME280;8926;49.720;6.576;2024-03-07T07:19:44;100249.34;;;10.98;74.06
17615;BME280;8926;49.720;6.576;2024-03-07T07:22:10;100250.22;;;11.48;73.82
17615;BME280;8926;49.720;6.576;2024-03-07T07:24:35;100244.94;;;11.83;69.38
17615;BME280;8926;49.720;6.576;2024-03-07T07:27:02;100239.72;;;12.14;67.02
17615;BME280;8926;49.720;6.576;2024-03-07T07:29:27;100241.88;;;12.53;66.15
17615;BME280;8926;49.720;6.576;2024-03-07T07:31:53;100229.38;;;13.03;64.61
17615;BME280;8926;49.720;6.576;2024-03-07T07:34:18;100227.59;;;13.62;63.59
17615;BME280;8926;49.720;6.576;2024-03-07T07:36:43;100235.50;;;14.17;60.78
17615;BME280;8926;49.720;6.576;2024-03-07T07:39:08;100222.59;;;14.41;62.61
17615;BME280;8926;49.720;6.576;2024-03-07T07:41:41;100225.38;;;14.52;57.96
17615;BME280;8926;49.720;6.576;2024-03-07T07:44:06;100216.84;;;15.01;58.29
17615;BME280;8926;49.720;6.576;2024-03-07T07:46:33;100220.50;;;14.85;58.35
17615;BME280;8926;49.720;6.576;2024-03-07T07:48:59;100221.59;;;13.59;57.55
17615;BME280;8926;49.720;6.576;2024-03-07T07:51:24;100218.50;;;14.22;55.49
17615;BME280;8926;49.720;6.576;2024-03-07T07:53:50;100216.22;;;15.10;53.12
17615;BME280;8926;49.720;6.576;2024-03-07T07:56:15;100218.53;;;15.52;50.58
17615;BME280;8926;49.720;6.576;2024-03-07T07:58:41;100207.63;;;16.32;50.02
17615;BME280;8926;49.720;6.576;2024-03-07T08:01:06;100212.03;;;16.55;48.57
17615;BME280;8926;49.720;6.576;2024-03-07T08:03:34;100198.50;;;16.83;46.64
17615;BME280;8926;49.720;6.576;2024-03-07T08:06:00;100191.31;;;16.85;50.31
17615;BME280;8926;49.720;6.576;2024-03-07T08:08:25;100210.41;;;16.17;47.24
17615;BME280;8926;49.720;6.576;2024-03-07T08:10:50;100205.47;;;15.38;49.54
17615;BME280;8926;49.720;6.576;2024-03-07T08:13:16;100208.19;;;14.73;52.10
17615;BME280;8926;49.720;6.576;2024-03-07T08:15:41;100201.56;;;14.41;52.55
17615;BME280;8926;49.720;6.576;2024-03-07T08:18:06;100203.97;;;14.17;51.92
17615;BME280;8926;49.720;6.576;2024-03-07T08:20:33;100203.88;;;14.04;52.61
17615;BME280;8926;49.720;6.576;2024-03-07T08:22:59;100202.63;;;13.83;53.13
17615;BME280;8926;49.720;6.576;2024-03-07T08:25:25;100194.41;;;13.61;52.29
17615;BME280;8926;49.720;6.576;2024-03-07T08:27:51;100192.34;;;13.66;51.93
17615;BME280;8926;49.720;6.576;2024-03-07T08:30:16;100191.19;;;13.84;52.32
17615;BME280;8926;49.720;6.576;2024-03-07T08:32:43;100189.09;;;13.89;51.83
17615;BME280;8926;49.720;6.576;2024-03-07T08:35:08;100183.84;;;13.89;51.25
17615;BME280;8926;49.720;6.576;2024-03-07T08:37:41;100182.66;;;14.07;52.54
17615;BME280;8926;49.720;6.576;2024-03-07T08:40:07;100179.28;;;14.05;50.04
17615;BME280;8926;49.720;6.576;2024-03-07T08:42:35;100183.78;;;14.17;49.58
17615;BME280;8926;49.720;6.576;2024-03-07T08:45:01;100177.31;;;14.36;50.71
17615;BME280;8926;49.720;6.576;2024-03-07T08:47:29;100171.75;;;14.54;50.36
17615;BME280;8926;49.720;6.576;2024-03-07T08:49:56;100167.66;;;14.63;49.15
17615;BME280;8926;49.720;6.576;2024-03-07T08:52:21;100170.47;;;14.60;50.34
17615;BME280;8926;49.720;6.576;2024-03-07T08:54:46;100170.91;;;14.54;49.50
17615;BME280;8926;49.720;6.576;2024-03-07T08:57:11;100160.03;;;14.46;48.63
17615;BME280;8926;49.720;6.576;2024-03-07T08:59:39;100170.16;;;14.52;47.72
17615;BME280;8926;49.720;6.576;2024-03-07T09:02:04;100164.38;;;14.47;47.61
17615;BME280;8926;49.720;6.576;2024-03-07T09:04:30;100149.88;;;14.54;49.21
17615;BME280;8926;49.720;6.576;2024-03-07T09:06:55;100160.22;;;14.16;49.79
17615;BME280;8926;49.720;6.576;2024-03-07T09:09:21;100161.53;;;13.96;48.06
17615;BME280;8926;49.720;6.576;2024-03-07T09:11:46;100157.91;;;14.11;49.43
17615;BME280;8926;49.720;6.576;2024-03-07T09:14:12;100166.50;;;13.86;48.88
17615;BME280;8926;49.720;6.576;2024-03-07T09:16:37;100166.47;;;13.59;50.10
17615;BME280;8926;49.720;6.576;2024-03-07T09:19:03;100158.22;;;13.66;50.47
17615;BME280;8926;49.720;6.576;2024-03-07T09:21:28;100154.94;;;13.62;50.38
17615;BME280;8926;49.720;6.576;2024-03-07T09:23:54;100157.69;;;14.14;50.51
17615;BME280;8926;49.720;6.576;2024-03-07T09:26:20;100138.63;;;14.52;49.05
17615;BME280;8926;49.720;6.576;2024-03-07T09:28:45;100145.47;;;14.54;46.78
17615;BME280;8926;49.720;6.576;2024-03-07T09:31:11;100142.84;;;14.67;47.34
17615;BME280;8926;49.720;6.576;2024-03-07T09:33:38;100153.25;;;14.81;46.74
17615;BME280;8926;49.720;6.576;2024-03-07T09:36:04;100141.91;;;14.93;45.55
17615;BME280;8926;49.720;6.576;2024-03-07T09:38:30;100139.06;;;15.22;45.64
17615;BME280;8926;49.720;6.576;2024-03-07T09:40:56;100130.19;;;15.48;44.85
17615;BME280;8926;49.720;6.576;2024-03-07T09:43:21;100141.44;;;15.50;44.61
17615;BME280;8926;49.720;6.576;2024-03-07T09:45:47;100130.06;;;15.37;45.11
17615;BME280;8926;49.720;6.576;2024-03-07T09:48:12;100136.59;;;15.44;44.49
17615;BME280;8926;49.720;6.576;2024-03-07T09:50:38;100136.00;;;15.28;44.71
17615;BME280;8926;49.720;6.576;2024-03-07T09:53:03;100133.25;;;15.17;45.53
17615;BME280;8926;49.720;6.576;2024-03-07T09:55:29;100129.69;;;15.18;45.55
17615;BME280;8926;49.720;6.576;2024-03-07T09:57:55;100134.53;;;15.24;45.22
17615;BME280;8926;49.720;6.576;2024-03-07T10:00:20;100130.53;;;15.31;46.61
17615;BME280;8926;49.720;6.576;2024-03-07T10:02:54;100124.81;;;15.37;44.97
17615;BME280;8926;49.720;6.576;2024-03-07T10:05:22;100133.88;;;15.33;44.95
17615;BME280;8926;49.720;6.576;2024-03-07T10:07:47;100125.13;;;15.45;45.18
17615;BME280;8926;49.720;6.576;2024-03-07T10:10:13;100130.28;;;15.34;45.10
17615;BME280;8926;49.720;6.576;2024-03-07T10:12:38;100128.38;;;15.36;45.26
17615;BME280;8926;49.720;6.576;2024-03-07T10:15:03;100135.53;;;15.59;42.31
17615;BME280;8926;49.720;6.576;2024-03-07T10:17:30;100126.34;;;15.78;43.43
17615;BME280;8926;49.720;6.576;2024-03-07T10:19:57;100127.94;;;15.68;40.89
17615;BME280;8926;49.720;6.576;2024-03-07T10:22:24;100126.03;;;15.70;42.67
17615;BME280;8926;49.720;6.576;2024-03-07T10:24:53;100116.97;;;15.74;41.48
17615;BME280;8926;49.720;6.576;2024-03-07T10:27:19;100107.50;;;15.71;39.80
17615;BME280;8926;49.720;6.576;2024-03-07T10:29:46;100110.94;;;15.84;41.96
17615;BME280;8926;49.720;6.576;2024-03-07T10:32:18;100109.13;;;15.85;41.96
17615;BME280;8926;49.720;6.576;2024-03-07T10:34:43;100121.06;;;15.78;39.84
17615;BME280;8926;49.720;6.576;2024-03-07T10:37:11;100097.91;;;15.94;41.68
17615;BME280;8926;49.720;6.576;2024-03-07T10:39:36;100115.19;;;15.98;39.79
17615;BME280;8926;49.720;6.576;2024-03-07T10:42:01;100096.31;;;16.15;39.01
17615;BME280;8926;49.720;6.576;2024-03-07T10:44:30;100101.94;;;16.35;39.48
17615;BME280;8926;49.720;6.576;2024-03-07T10:46:56;100104.13;;;16.52;39.70
17615;BME280;8926;49.720;6.576;2024-03-07T10:49:25;100099.00;;;16.26;39.64
17615;BME280;8926;49.720;6.576;2024-03-07T10:59:40;100096.22;;;16.17;39.57
17615;BME280;8926;49.720;6.576;2024-03-07T11:04:52;100086.00;;;16.12;39.57
17615;BME280;8926;49.720;6.576;2024-03-07T11:07:19;100085.16;;;16.36;39.90
17615;BME280;8926;49.720;6.576;2024-03-07T11:09:45;100084.19;;;16.37;39.14
17615;BME280;8926;49.720;6.576;2024-03-07T11:12:12;100073.88;;;16.34;39.68
17615;BME280;8926;49.720;6.576;2024-03-07T11:14:38;100079.88;;;16.47;39.66
17615;BME280;8926;49.720;6.576;2024-03-07T11:17:04;100078.44;;;16.78;40.91
17615;BME280;8926;49.720;6.576;2024-03-07T11:19:32;100070.47;;;16.67;38.38
17615;BME280;8926;49.720;6.576;2024-03-07T11:22:01;100070.38;;;16.79;38.94
17615;BME280;8926;49.720;6.576;2024-03-07T11:24:27;100061.47;;;16.58;40.81
17615;BME280;8926;49.720;6.576;2024-03-07T11:26:57;100079.03;;;16.11;40.87
17615;BME280;8926;49.720;6.576;2024-03-07T11:32:10;100075.84;;;14.73;41.98
17615;BME280;8926;49.720;6.576;2024-03-07T11:34:40;100076.78;;;14.19;43.00
17615;BME280;8926;49.720;6.576;2024-03-07T11:37:06;100068.88;;;13.80;43.77
17615;BME280;8926;49.720;6.576;2024-03-07T11:39:42;100071.06;;;13.46;44.33
17615;BME280;8926;49.720;6.576;2024-03-07T11:42:08;100061.81;;;12.98;45.09
17615;BME280;8926;49.720;6.576;2024-03-07T11:44:33;100070.91;;;12.93;45.31
17615;BME280;8926;49.720;6.576;2024-03-07T11:47:00;100060.88;;;12.71;45.80
17615;BME280;8926;49.720;6.576;2024-03-07T11:49:33;100064.06;;;12.62;45.86
17615;BME280;8926;49.720;6.576;2024-03-07T11:52:00;100049.78;;;12.51;45.92
17615;BME280;8926;49.720;6.576;2024-03-07T11:54:29;100050.19;;;12.45;46.40
17615;BME280;8926;49.720;6.576;2024-03-07T11:56:56;100051.63;;;12.94;46.04
17615;BME280;8926;49.720;6.576;2024-03-07T11:59:22;100041.88;;;13.24;44.76
17615;BME280;8926;49.720;6.576;2024-03-07T12:01:48;100042.63;;;12.98;45.80
17615;BME280;8926;49.720;6.576;2024-03-07T12:04:13;100040.38;;;12.91;45.82
17615;BME280;8926;49.720;6.576;2024-03-07T12:06:49;100030.34;;;12.84;45.33
17615;BME280;8926;49.720;6.576;2024-03-07T12:09:14;100025.38;;;13.22;45.47
17615;BME280;8926;49.720;6.576;2024-03-07T12:11:48;100024.06;;;13.01;46.03
17615;BME280;8926;49.720;6.576;2024-03-07T12:14:17;100034.72;;;13.12;45.37
17615;BME280;8926;49.720;6.576;2024-03-07T12:16:42;100013.63;;;13.28;45.36
17615;BME280;8926;49.720;6.576;2024-03-07T12:19:08;100021.59;;;13.40;44.18
17615;BME280;8926;49.720;6.576;2024-03-07T12:21:36;100012.41;;;13.33;44.16
17615;BME280;8926;49.720;6.576;2024-03-07T12:24:10;100020.03;;;13.09;43.44
17615;BME280;8926;49.720;6.576;2024-03-07T12:26:35;100014.44;;;13.15;43.57
17615;BME280;8926;49.720;6.576;2024-03-07T12:29:07;100003.63;;;13.06;43.05
17615;BME280;8926;49.720;6.576;2024-03-07T12:31:34;100009.22;;;13.28;43.11
17615;BME280;8926;49.720;6.576;2024-03-07T12:34:00;99998.28;;;13.07;42.62
17615;BME280;8926;49.720;6.576;2024-03-07T12:36:27;99995.47;;;13.10;43.90
17615;BME280;8926;49.720;6.576;2024-03-07T12:38:59;99998.13;;;12.96;44.55
17615;BME280;8926;49.720;6.576;2024-03-07T12:41:34;99986.22;;;13.05;43.55
17615;BME280;8926;49.720;6.576;2024-03-07T12:43:59;99986.22;;;13.05;43.81
17615;BME280;8926;49.720;6.576;2024-03-07T12:46:24;99990.72;;;13.17;44.48
17615;BME280;8926;49.720;6.576;2024-03-07T12:48:50;99984.53;;;13.18;43.92
17615;BME280;8926;49.720;6.576;2024-03-07T12:51:15;99983.34;;;13.36;44.02
17615;BME280;8926;49.720;6.576;2024-03-07T12:53:43;99989.03;;;13.16;44.04
17615;BME280;8926;49.720;6.576;2024-03-07T12:56:08;99985.88;;;12.82;44.08
17615;BME280;8926;49.720;6.576;2024-03-07T12:58:34;99982.69;;;12.77;44.50
17615;BME280;8926;49.720;6.576;2024-03-07T13:00:59;99979.88;;;12.95;44.00
17615;BME280;8926;49.720;6.576;2024-03-07T13:03:25;99967.44;;;12.84;42.96
17615;BME280;8926;49.720;6.576;2024-03-07T13:05:55;99971.09;;;12.67;43.43
17615;BME280;8926;49.720;6.576;2024-03-07T13:08:20;99965.47;;;12.73;44.80
17615;BME280;8926;49.720;6.576;2024-03-07T13:10:50;99966.59;;;12.83;43.57
17615;BME280;8926;49.720;6.576;2024-03-07T13:13:15;99968.84;;;12.61;44.66
17615;BME280;8926;49.720;6.576;2024-03-07T13:15:41;99971.28;;;12.64;44.15